Tiempo atmosférico en la estación meteorológica de Castuera , Badajoz (512 m.)



Fecha
DESCASC
Temp. máxima en grados centígrados (hora)
DESCASC
Temp. mínima en grados centígrados (hora)
DESCASC
Temp. media en grados centígrados
DESCASC
Racha de viento máxima en m/sg (hora)
DESCASC
Velocidad máxima media en intervalos de 10 minutos(hora)
DESCASC
Precipitaciones diarias en mm
DESCASC
Precipitaciones de 00:00 a 06:00 en mm
DESCASC
Precipitaciones de 06:00 a 12:00 en mm
DESCASC
Precipitaciones de 12:00 a 18:00 en mm
DESCASC
Precipitaciones de 18:00 a 24:00 en mm
DESCASC
14-02-2019 19.1 (15:40) 7.9 (07:40) 13.5 11.11 (11:50) 7.5 (11:50) 0 0 0 0 0
13-02-2019 17 (17:10) 8.2 (04:30) 12.6 5.56 (14:40) 4.17 (08:00) 0 0 0 0 0
12-02-2019 17.9 (15:30) 5.3 (08:40) 11.6 6.67 (16:20) 4.44 (07:40) 0 0 0 0 0
11-02-2019 14.2 (17:20) 6.6 (08:40) 10.4 5.28 (02:00) 3.06 (21:50) 0 0 0 0 0
10-02-2019 14.4 (17:00) 6.8 (00:00) 10.6 8.33 (15:50) 5.28 (15:40) 0 0 0 0 0
09-02-2019 15 (15:50) 5.7 (00:00) 10.3 5.83 (16:50) 4.17 (16:50) 0 0 0 0 0
08-02-2019 16.1 (14:50) 5.6 (00:00) 10.9 5.28 (15:00) 3.06 (15:00) 0 0 0 0 0
07-02-2019 16.9 (16:30) 7.7 (00:00) 12.3 5 (14:50) 2.78 (17:20) 0 0 0 0 0
06-02-2019 17.7 (16:10) 8.4 (00:00) 13.1 4.17 (18:10) 2.78 (18:10) 0 0 0 0 0
05-02-2019 16.4 (14:10) 5.3 (00:00) 10.8 4.72 (14:50) 2.5 (17:50) 0 0 0 0 0
04-02-2019 12.2 (16:00) 3.7 (00:00) 7.9 8.33 (07:10) 6.11 (07:00) 0 0 0 0 0
03-02-2019 9.5 (16:50) 0.3 (00:00) 4.9 7.22 (00:30) 4.44 (00:30) 0 0 0 0 0
02-02-2019 9.5 (15:20) 3.1 (00:00) 6.3 15 (15:20) 9.72 (15:30) 0 0 0 0 0
01-02-2019 11 (02:20) 4.3 (00:00) 7.7 20.28 (16:10) 12.5 (16:10) 10.2 9.2 0 1 0
31-01-2019 13.3 (16:30) 9.4 (00:00) 11.3 18.89 (18:00) 10.83 (18:00) 2.8 0.8 1.8 0.2 0
30-01-2019 10.7 (15:20) 5.2 (00:00) 7.9 10.28 (02:30) 6.39 (23:40) 0.6 0 0 0 0.6
29-01-2019 11 (16:30) 4.6 (00:00) 7.8 11.11 (13:30) 6.94 (16:30) 0 0 0 0 0
28-01-2019 13 (15:30) 2.8 (00:00) 7.9 13.61 (17:50) 8.33 (16:10) 0 0 0 0 0
27-01-2019 12.6 (15:50) 4.3 (00:00) 8.5 12.5 (14:00) 8.61 (17:40) 0 0 0 0 0
26-01-2019 18.7 (14:40) 6.2 (00:00) 12.5 5.28 (06:10) 3.06 (06:10) 0 0 0 0 0
25-01-2019 16.8 (17:20) 8 (00:00) 12.4 5.28 (03:20) 3.61 (03:10) 0 0 0 0 0
24-01-2019 16.8 (15:50) 6.9 (00:00) 11.8 8.33 (00:30) 5 (16:40) 0 0 0 0 0
23-01-2019 13.2 (14:40) 4.8 (00:00) 9 14.17 (13:10) 8.89 (17:50) 0 0 0 0 0
22-01-2019 9.7 (15:30) 2.9 (00:00) 6.3 12.5 (14:40) 8.33 (14:40) 0 0 0 0 0
21-01-2019 10.9 (17:20) 2.8 (00:00) 6.8 5.28 (15:30) 2.78 (15:50) 0 0 0 0 0
20-01-2019 12.9 (15:50) 5.8 (00:00) 9.3 9.44 (07:10) 6.39 (07:30) 0.8 0.6 0.2 0 0
19-01-2019 9.8 (15:30) 4.3 (00:00) 7.1 8.61 (22:10) 5.83 (19:20) 5 0 0 1.6 3.4

Gráficas

Temp. máximas Temp. mínimas Temp. medias Precipitaciones Rachas de viento máximas Velocidades máximas media en intervalos de 10 minutos

Datos horarios

Fecha y hora oficial Temperatura (ºC) Velocidad del viento (km/h) Dirección del viento Racha (km/h) Dirección de racha Precipitación (mm) Presión (hPa) Tendencia (hPa) Humedad (%)
2019-02-17 23:00:00 11.4 9 Sudeste 15 Sur 0 -- -- 59
2019-02-17 22:00:00 11.5 11 Sudeste 15 Sur 0 -- -- 58
2019-02-17 21:00:00 12.3 12 Sur 20 Sur 0 -- -- 55
2019-02-17 20:00:00 13 15 Sudeste 19 Sur 0 -- -- 48
2019-02-17 19:00:00 14.5 11 Sudeste 20 Sudoeste 0 -- -- 42
2019-02-17 18:00:00 17.4 16 Sur 26 Sur 0 -- -- 36
2019-02-17 17:00:00 19.2 14 Sur 25 Sur 0 -- -- 32
2019-02-17 16:00:00 19.4 13 Sudoeste 23 Sur 0 -- -- 33
2019-02-17 15:00:00 18.6 10 Sur 22 Sur 0 -- -- 35
2019-02-17 14:00:00 17.3 9 Sudoeste 21 Sudeste 0 -- -- 38
2019-02-17 13:00:00 15 15 Sudeste 31 Sudeste 0 -- -- 45
2019-02-17 12:00:00 13.3 17 Sudeste 26 Sudeste 0 -- -- 47
2019-02-17 11:00:00 12.4 10 Sudeste 19 Sudeste 0 -- -- 53
2019-02-17 10:00:00 10.3 7 Sudeste 19 Sudeste 0 -- -- 60
2019-02-17 09:00:00 9.5 12 Sudeste 20 Sudeste 0 -- -- 61
2019-02-17 08:00:00 9.1 12 Sudeste 27 Sudeste 0 -- -- 63
2019-02-17 07:00:00 8.6 15 Sudeste 23 Sudeste 0 -- -- 65
2019-02-17 06:00:00 8.9 5 Sudeste 24 Sudeste 0 -- -- 62
2019-02-17 05:00:00 9.8 13 Sudeste 26 Sudeste 0 -- -- 58
2019-02-17 04:00:00 10.2 14 Sudeste 24 Sudeste 0 -- -- 55
2019-02-17 03:00:00 10.6 16 Sudeste 22 Sudeste 0 -- -- 54
2019-02-17 02:00:00 11 10 Sudeste 15 Sudeste 0 -- -- 54
2019-02-17 01:00:00 11.1 8 Sudeste 16 Sudeste 0 -- -- 54
2019-02-17 00:00:00 11 10 Sudeste 15 Sudeste 0 -- -- 54
2019-02-16 23:00:00 12 2 Nordeste 5 Sudoeste 0 -- -- 50
2019-02-16 22:00:00 12.8 4 Sudeste 14 Este 0 -- -- 47
2019-02-16 21:00:00 15.1 12 Este 21 Este 0 -- -- 41
2019-02-16 20:00:00 15.2 10 Este 18 Este 0 -- -- 40
2019-02-16 19:00:00 16.3 9 Este 13 Sudeste 0 -- -- 34
2019-02-16 18:00:00 18.8 9 Sur 19 Sur 0 -- -- 26
2019-02-16 17:00:00 20.1 11 Sur 18 Sudeste 0 -- -- 24
2019-02-16 16:00:00 18.8 9 Sudeste 19 Sudoeste 0 -- -- 34
2019-02-16 15:00:00 18.1 5 Este 12 Sur 0 -- -- 34
2019-02-16 14:00:00 17.1 5 Nordeste 18 Sudeste 0 -- -- 39
2019-02-16 13:00:00 17 11 Sudeste 21 Sudeste 0 -- -- 39
2019-02-16 12:00:00 15.2 10 Sur 16 Sudeste 0 -- -- 53
2019-02-16 11:00:00 11.7 6 Sur 9 Sur 0 -- -- 63
2019-02-16 10:00:00 7.9 2 Nordeste 20 Sudeste 0 -- -- 72
2019-02-16 09:00:00 6 14 Sudeste 20 Sudeste 0 -- -- 78
2019-02-16 08:00:00 6 8 Sudeste 22 Sudeste 0 -- -- 77
2019-02-16 07:00:00 6.7 9 Sudeste 17 Sudeste 0 -- -- 72
2019-02-16 06:00:00 7.7 0 Calma 8 Nordeste 0 -- -- 68
2019-02-16 05:00:00 8.3 0 Calma 10 Sudeste 0 -- -- 65
2019-02-16 04:00:00 8.2 8 Sudeste 11 Sudeste 0 -- -- 66
2019-02-16 03:00:00 9.2 3 Sudeste 17 Sudeste 0 -- -- 62
2019-02-16 02:00:00 9.8 9 Sudeste 12 Sudeste 0 -- -- 60
2019-02-16 01:00:00 10.3 3 Sudeste 7 Sudeste 0 -- -- 56
2019-02-16 00:00:00 11.5 2 Noroeste 22 Este 0 -- -- 51
2019-02-15 23:00:00 13.3 15 Este 28 Este 0 -- -- 46
2019-02-15 22:00:00 13.9 12 Sudeste 30 Sudeste 0 -- -- 42
2019-02-15 21:00:00 14.3 18 Este 31 Este 0 -- -- 44
2019-02-15 20:00:00 14.6 15 Este 25 Este 0 -- -- 44
2019-02-15 19:00:00 14.9 14 Este 23 Este 0 -- -- 42
2019-02-15 18:00:00 15.8 8 Este 23 Este 0 -- -- 44
2019-02-15 17:00:00 16.9 9 Este 28 Nordeste 0 -- -- 40
2019-02-15 16:00:00 17.2 8 Este 21 Este 0 -- -- 41
2019-02-15 15:00:00 16.9 11 Este 21 Este 0 -- -- 37
2019-02-15 14:00:00 15.8 6 Nordeste 17 Nordeste 0 -- -- 47
2019-02-15 13:00:00 14 7 Nordeste 15 Sur 0 -- -- 54
2019-02-15 12:00:00 14.3 11 Sur 17 Sur 0 -- -- 55
2019-02-15 11:00:00 12.1 8 Sur 15 Este 0 -- -- 61
2019-02-15 10:00:00 10.4 10 Sudeste 26 Sudeste 0 -- -- 62
2019-02-15 09:00:00 8.4 17 Sudeste 27 Sudeste 0 -- -- 70
2019-02-15 08:00:00 8.5 6 Sudeste 27 Sudeste 0 -- -- 69
2019-02-15 07:00:00 8.9 20 Sudeste 30 Sudeste 0 -- -- 67
2019-02-15 06:00:00 8.7 15 Sudeste 26 Sudeste 0 -- -- 68
2019-02-15 05:00:00 8.7 17 Sudeste 28 Sudeste 0 -- -- 66
2019-02-15 04:00:00 9.9 17 Sudeste 26 Sudeste 0 -- -- 60
2019-02-15 03:00:00 11 18 Sudeste 31 Sudeste 0 -- -- 55
2019-02-15 02:00:00 10.4 16 Sudeste 29 Sudeste 0 -- -- 56
2019-02-15 01:00:00 11 18 Sudeste 33 Sudeste 0 -- -- 55
2019-02-15 00:00:00 11.4 19 Sudeste 31 Sudeste 0 -- -- 56
2019-02-14 23:00:00 11.5 19 Sudeste 28 Sudeste 0 -- -- 59
2019-02-14 22:00:00 11.9 15 Sudeste 26 Sudeste 0 -- -- 57
2019-02-14 21:00:00 12.8 15 Sudeste 25 Sudeste 0 -- -- 53
2019-02-14 20:00:00 13.7 13 Sudeste 22 Sudeste 0 -- -- 49
2019-02-14 19:00:00 15.3 8 Sudeste 19 Sudeste 0 -- -- 44
2019-02-14 18:00:00 18 12 Sur 24 Sudeste 0 -- -- 37
2019-02-14 17:00:00 18.8 12 Sudeste 24 Sudeste 0 -- -- 34
2019-02-14 16:00:00 18.8 14 Sudeste 26 Sur 0 -- -- 33
2019-02-14 15:00:00 18.6 16 Sur 27 Sudeste 0 -- -- 32
2019-02-14 14:00:00 17.2 16 Sudeste 28 Sudeste 0 -- -- 35
2019-02-14 13:00:00 15.4 15 Sudeste 39 Sudeste 0 -- -- 46
2019-02-14 12:00:00 12.9 26 Sudeste 40 Sudeste 0 -- -- 50
2019-02-14 11:00:00 10.7 25 Sudeste 35 Sudeste 0 -- -- 59
2019-02-14 10:00:00 9.5 16 Sudeste 33 Sudeste 0 -- -- 62
2019-02-14 09:00:00 8.3 19 Sudeste 33 Sudeste 0 -- -- 66
2019-02-14 08:00:00 8 20 Sudeste 32 Sudeste 0 -- -- 66
2019-02-14 07:00:00 8.5 18 Sudeste 35 Sudeste 0 -- -- 64
2019-02-14 06:00:00 8.4 18 Sudeste 28 Sudeste 0 -- -- 69
2019-02-14 05:00:00 9.3 15 Sudeste 24 Sudeste 0 -- -- 64
2019-02-14 04:00:00 10.4 10 Sudeste 21 Este 0 -- -- 58
2019-02-14 03:00:00 11.6 12 Sudeste 21 Sudeste 0 -- -- 53
2019-02-14 02:00:00 11.5 5 Sudeste 25 Sudeste 0 -- -- 57
2019-02-14 01:00:00 12 19 Sudeste 25 Sudeste 0 -- -- 60
2019-02-14 00:00:00 11.9 13 Sudeste 19 Sudeste 0 -- -- 62
2019-02-13 23:00:00 12.4 10 Sudeste 17 Sudeste 0 -- -- 62
2019-02-13 22:00:00 14.1 12 Este 16 Este 0 -- -- 56
2019-02-13 21:00:00 14.1 10 Este 15 Este 0 -- -- 56
2019-02-13 20:00:00 14.5 10 Este 15 Este 0 -- -- 55
2019-02-13 19:00:00 15 10 Este 14 Este 0 -- -- 54
2019-02-13 18:00:00 16.5 8 Este 19 Este 0 -- -- 49
2019-02-13 17:00:00 16.9 4 Este 17 Este 0 -- -- 45
2019-02-13 16:00:00 16.5 5 Nordeste 17 Este 0 -- -- 49
2019-02-13 15:00:00 15.8 8 Este 20 Este 0 -- -- 51
2019-02-13 14:00:00 15.2 6 Nordeste 14 Nordeste 0 -- -- 56
2019-02-13 13:00:00 13.3 9 Nordeste 16 Nordeste 0 -- -- 61
2019-02-13 12:00:00 13.4 5 Norte 12 Norte 0 -- -- 60
2019-02-13 11:00:00 13 4 Sur 10 Sudeste 0 -- -- 68
2019-02-13 10:00:00 11.4 5 Sur 12 Sudeste 0 -- -- 72
2019-02-13 09:00:00 9 9 Sudeste 18 Sudeste 0 -- -- 76
2019-02-13 08:00:00 9.4 15 Sudeste 19 Sudeste 0 -- -- 74
2019-02-13 07:00:00 9.4 14 Sudeste 17 Sudeste 0 -- -- 74
2019-02-13 06:00:00 8.7 5 Sudeste 9 Sur 0 -- -- 78
2019-02-13 05:00:00 8.4 0 Calma 3 Noroeste 0 -- -- 75
2019-02-13 04:00:00 9.2 3 Noroeste 14 Sudeste 0 -- -- 69
2019-02-13 03:00:00 10.6 5 Sudeste 18 Sudeste 0 -- -- 63
2019-02-13 02:00:00 10.6 11 Sudeste 14 Sudeste 0 -- -- 65
2019-02-13 01:00:00 10.9 8 Sudeste 16 Sudeste 0 -- -- 65
2019-02-13 00:00:00 11.2 10 Sudeste 16 Sudeste 0 -- -- 66
2019-02-12 23:00:00 11.6 14 Sudeste 18 Sudeste 0 -- -- 66
2019-02-12 22:00:00 11.6 4 Sudeste 10 Sudeste 0 -- -- 67
2019-02-12 21:00:00 13.2 13 Este 17 Este 0 -- -- 47
2019-02-12 20:00:00 13.4 13 Este 15 Este 0 -- -- 47
2019-02-12 19:00:00 13.9 10 Nordeste 15 Este 0 -- -- 47
2019-02-12 18:00:00 15 7 Nordeste 17 Norte 0 -- -- 47
2019-02-12 17:00:00 15.5 8 Norte 24 Norte 0 -- -- 45
2019-02-12 16:00:00 17.5 6 Noroeste 15 Noroeste 0 -- -- 40
2019-02-12 15:00:00 17.6 6 Sudoeste 14 Sudoeste 0 -- -- 39
2019-02-12 14:00:00 16.6 5 Sudoeste 17 Sur 0 -- -- 40
2019-02-12 13:00:00 15.4 9 Sur 20 Sudeste 0 -- -- 38
2019-02-12 12:00:00 13.2 12 Sur 19 Sur 0 -- -- 52
2019-02-12 11:00:00 11.1 9 Sur 19 Sudeste 0 -- -- 60
2019-02-12 10:00:00 8.1 10 Sudeste 23 Sudeste 0 -- -- 64
2019-02-12 09:00:00 5.4 11 Sudeste 21 Sudeste 0 -- -- 70
2019-02-12 08:00:00 6 9 Sudeste 22 Sudeste 0 -- -- 65
2019-02-12 07:00:00 8.3 11 Sudeste 20 Este 0 -- -- 52
2019-02-12 06:00:00 9.3 7 Sudeste 22 Sudeste 0 -- -- 47
2019-02-12 05:00:00 9.6 10 Sudeste 17 Este 0 -- -- 52
2019-02-12 04:00:00 9.5 5 Sudeste 12 Este 0 -- -- 74
2019-02-12 03:00:00 10.4 4 Este 12 Sudeste 0 -- -- 77
2019-02-12 02:00:00 11.1 7 Este 15 Este 0 -- -- 74
2019-02-12 01:00:00 10.1 6 Este 15 Este 0 -- -- 82
2019-02-12 00:00:00 10.2 0 Calma 15 Nordeste 0 -- -- 79
2019-02-11 23:00:00 10.8 10 Nordeste 17 Nordeste 0 -- -- 79
2019-02-11 22:00:00 10.7 9 Nordeste 17 Nordeste 0 -- -- 76
2019-02-11 21:00:00 10.4 7 Nordeste 11 Norte 0 -- -- 74
2019-02-11 20:00:00 10.8 5 Nordeste 8 Nordeste 0 -- -- 66
2019-02-11 19:00:00 12.1 4 Nordeste 12 Norte 0 -- -- 64
2019-02-11 18:00:00 13.4 6 Norte 14 Norte 0 -- -- 51
2019-02-11 17:00:00 13.9 7 Norte 14 Norte 0 -- -- 56
2019-02-11 16:00:00 13.2 7 Norte 14 Nordeste 0 -- -- 58
2019-02-11 15:00:00 12.2 7 Norte 18 Nordeste 0 -- -- 66
2019-02-11 14:00:00 11.7 8 Norte 14 Norte 0 -- -- 73
2019-02-11 13:00:00 12 5 Sudoeste 16 Sur 0 -- -- 75
2019-02-11 12:00:00 10 3 Norte 9 Norte 0 -- -- 81
2019-02-11 11:00:00 7.6 4 Norte 14 Noroeste 0 -- -- 96
2019-02-11 10:00:00 7.1 3 Norte 8 Noroeste 0 -- -- 97
2019-02-11 09:00:00 6.6 5 Sur 12 Sudoeste 0 -- -- 97
2019-02-11 08:00:00 7.1 4 Sudoeste 11 Oeste 0 -- -- 96
2019-02-11 07:00:00 8.1 4 Oeste 10 Oeste 0 -- -- 95
2019-02-11 06:00:00 9.3 4 Oeste 12 Oeste 0 -- -- 96
2019-02-11 05:00:00 10.1 3 Sudoeste 6 Oeste 0 -- -- 96
2019-02-11 04:00:00 10.7 3 Oeste 9 Sudoeste 0 -- -- 96
2019-02-11 03:00:00 10.9 4 Oeste 17 Oeste 0 -- -- 96
2019-02-11 02:00:00 11 10 Oeste 19 Oeste 0 -- -- 97
2019-02-11 01:00:00 10.9 10 Sudoeste 17 Oeste 0 -- -- 95
2019-02-11 00:00:00 11.1 8 Sudoeste 15 Sudoeste 0 -- -- 93
2019-02-10 23:00:00 11.5 10 Sudoeste 18 Sudoeste 0 -- -- 85
2019-02-10 22:00:00 11.8 12 Sudoeste 19 Sudoeste 0 -- -- 79
2019-02-10 21:00:00 12.1 11 Sudoeste 18 Sudoeste 0 -- -- 74
2019-02-10 20:00:00 12.2 11 Sudoeste 15 Sudoeste 0 -- -- 72
2019-02-10 19:00:00 12.8 7 Sudoeste 18 Oeste 0 -- -- 70
2019-02-10 18:00:00 13.2 8 Sudoeste 23 Oeste 0 -- -- 69
2019-02-10 17:00:00 14.4 18 Oeste 27 Oeste 0 -- -- 62
2019-02-10 16:00:00 13.3 15 Noroeste 30 Oeste 0 -- -- 63
2019-02-10 15:00:00 14.1 16 Oeste 28 Oeste 0 -- -- 64
2019-02-10 14:00:00 12 13 Oeste 25 Oeste 0 -- -- 66
2019-02-10 13:00:00 12.7 11 Noroeste 22 Oeste 0 -- -- 63
2019-02-10 12:00:00 12.2 10 Sudoeste 16 Sudoeste 0 -- -- 65
2019-02-10 11:00:00 9.9 7 Sur 14 Sudoeste 0 -- -- 80
2019-02-10 10:00:00 8.1 8 Sudeste 12 Sudeste 0 -- -- 87
2019-02-10 09:00:00 7 4 Sur 8 Sur 0 -- -- 90
2019-02-10 08:00:00 7 5 Sur 10 Sur 0 -- -- 87
2019-02-10 07:00:00 7.3 4 Sur 8 Sur 0 -- -- 86
2019-02-10 06:00:00 7.5 3 Sur 9 Sudeste 0 -- -- 86
2019-02-10 05:00:00 7.5 5 Sur 10 Sudoeste 0 -- -- 86
2019-02-10 04:00:00 7.8 3 Sur 7 Sudeste 0 -- -- 87
2019-02-10 03:00:00 8.3 2 Sur 5 Oeste 0 -- -- 85
2019-02-10 02:00:00 8.9 0 Calma 6 Sur 0 -- -- 82
2019-02-10 01:00:00 8.7 5 Sur 8 Sudeste 0 -- -- 86
2019-02-10 00:00:00 8.6 6 Sudeste 7 Sudeste 0 -- -- 88
2019-02-09 23:00:00 8.3 5 Sudeste 7 Sudeste 0 -- -- 89
2019-02-09 22:00:00 8.9 2 Norte 6 Nordeste 0 -- -- 84
2019-02-09 21:00:00 9 5 Nordeste 11 Nordeste 0 -- -- 82
2019-02-09 20:00:00 9.5 8 Nordeste 15 Nordeste 0 -- -- 79
2019-02-09 19:00:00 10.1 9 Nordeste 16 Norte 0 -- -- 77
2019-02-09 18:00:00 11.4 11 Nordeste 19 Norte 0 -- -- 72
2019-02-09 17:00:00 12.3 13 Norte 21 Norte 0 -- -- 70
2019-02-09 16:00:00 14.9 6 Noroeste 13 Norte 0 -- -- 59
2019-02-09 15:00:00 13.5 5 Norte 15 Noroeste 0 -- -- 66
2019-02-09 14:00:00 11.7 5 Nordeste 14 Norte 0 -- -- 73
2019-02-09 13:00:00 10.8 7 Norte 13 Nordeste 0 -- -- 78
2019-02-09 12:00:00 9.2 7 Nordeste 10 Nordeste 0 -- -- 83
2019-02-09 11:00:00 10.3 4 Sur 8 Sudoeste 0 -- -- 82
2019-02-09 10:00:00 9.5 4 Sur 13 Sudeste 0 -- -- 84
2019-02-09 09:00:00 6.7 8 Sudeste 14 Sudeste 0 -- -- 90
2019-02-09 08:00:00 6.5 9 Sudeste 12 Sudeste 0 -- -- 90
2019-02-09 07:00:00 6.1 4 Sudeste 10 Sudeste 0 -- -- 90
2019-02-09 06:00:00 5.7 3 Sur 5 Sudeste 0 -- -- 90
2019-02-09 05:00:00 6.6 0 Calma 6 Norte 0 -- -- 88
2019-02-09 04:00:00 6.9 0 Calma 5 Sudeste 0 -- -- 88
2019-02-09 03:00:00 7 0 Calma 3 Sur 0 -- -- 88
2019-02-09 02:00:00 7.1 0 Calma 7 Sudeste 0 -- -- 90
2019-02-09 01:00:00 7.4 0 Calma 6 Sudeste 0 -- -- 89
2019-02-09 00:00:00 7.5 3 Sur 5 Sudeste 0 -- -- 87
2019-02-08 23:00:00 8.1 0 Calma 4 Norte 0 -- -- 82
2019-02-08 22:00:00 8.7 3 Norte 6 Norte 0 -- -- 77
2019-02-08 21:00:00 8.8 3 Noroeste 15 Norte 0 -- -- 74
2019-02-08 20:00:00 10 6 Norte 16 Norte 0 -- -- 72
2019-02-08 19:00:00 11.8 9 Norte 16 Nordeste 0 -- -- 66
2019-02-08 18:00:00 13.9 10 Nordeste 15 Nordeste 0 -- -- 59
2019-02-08 17:00:00 14.5 6 Nordeste 14 Norte 0 -- -- 55
2019-02-08 16:00:00 14.5 8 Nordeste 18 Norte 0 -- -- 55
2019-02-08 15:00:00 15.5 11 Norte 19 Noroeste 0 -- -- 52
2019-02-08 14:00:00 15.5 8 Oeste 15 Noroeste 0 -- -- 47
2019-02-08 13:00:00 16 5 Sudoeste 13 Sur 0 -- -- 40
2019-02-08 12:00:00 14.8 8 Sur 13 Sur 0 -- -- 50
2019-02-08 11:00:00 12.8 8 Sur 11 Sudeste 0 -- -- 54
2019-02-08 10:00:00 9.9 6 Sudeste 9 Sudeste 0 -- -- 65
2019-02-08 09:00:00 5.7 2 Sudeste 3 Sudeste 0 -- -- 84
2019-02-08 08:00:00 7.4 0 Calma 4 Noroeste 0 -- -- 73
2019-02-08 07:00:00 8.4 0 Calma 6 Sudeste 0 -- -- 73
2019-02-08 06:00:00 8.5 4 Sudeste 6 Sudeste 0 -- -- 72
2019-02-08 05:00:00 8.7 5 Sudeste 7 Sudeste 0 -- -- 69
2019-02-08 04:00:00 9 3 Sudeste 5 Sudeste 0 -- -- 68
2019-02-08 03:00:00 9.1 0 Calma 5 Sudeste 0 -- -- 66
2019-02-08 02:00:00 9.6 4 Nordeste 5 Nordeste 0 -- -- 62
2019-02-08 01:00:00 9.5 0 Calma 7 Sudeste 0 -- -- 61
2019-02-08 00:00:00 9.4 0 Calma 4 Sudeste 0 -- -- 53
2019-02-07 23:00:00 9.9 0 Calma 3 Sur 0 -- -- 48
2019-02-07 22:00:00 10.9 0 Calma 4 Norte 0 -- -- 35
2019-02-07 21:00:00 11.2 0 Calma 3 Este 0 -- -- 39
2019-02-07 20:00:00 11.9 0 Calma 6 Nordeste 0 -- -- 36
2019-02-07 19:00:00 13.2 5 Norte 13 Norte 0 -- -- 38
2019-02-07 18:00:00 15.2 8 Norte 16 Norte 0 -- -- 29
2019-02-07 17:00:00 16.6 8 Noroeste 13 Noroeste 0 -- -- 28
2019-02-07 16:00:00 16.3 6 Oeste 18 Oeste 0 -- -- 31
2019-02-07 15:00:00 15.8 8 Noroeste 18 Norte 0 -- -- 40
2019-02-07 14:00:00 14.7 5 Norte 13 Oeste 0 -- -- 38
2019-02-07 13:00:00 13.9 4 Noroeste 12 Noroeste 0 -- -- 43
2019-02-07 12:00:00 12.5 4 Noroeste 8 Norte 0 -- -- 52
2019-02-07 11:00:00 11.6 3 Oeste 6 Oeste 0 -- -- 61
2019-02-07 10:00:00 10.5 0 Calma 3 Sur 0 -- -- 63
2019-02-07 09:00:00 8 0 Calma 5 Sudeste 0 -- -- 71
2019-02-07 08:00:00 8.3 0 Calma 3 Sur 0 -- -- 69
2019-02-07 07:00:00 8.4 2 Sudeste 5 Sudeste 0 -- -- 66
2019-02-07 06:00:00 8.8 4 Sudeste 5 Sudeste 0 -- -- 64
2019-02-07 05:00:00 9.5 0 Calma 5 Noroeste 0 -- -- 61
2019-02-07 04:00:00 9.7 0 Calma 4 Sudeste 0 -- -- 61
2019-02-07 03:00:00 9.3 3 Sur 5 Sudeste 0 -- -- 63
2019-02-07 02:00:00 9.9 4 Sudeste 6 Sudeste 0 -- -- 62
2019-02-07 01:00:00 10.1 3 Sur 5 Sudeste 0 -- -- 63
2019-02-07 00:00:00 10.7 2 Sudeste 3 Sur 0 -- -- 61
2019-02-06 23:00:00 11.3 0 Calma 3 Sudeste 0 -- -- 58
2019-02-06 22:00:00 11.9 2 Sudeste 3 Sudeste 0 -- -- 57
2019-02-06 21:00:00 12.4 0 Calma 8 Nordeste 0 -- -- 52
2019-02-06 20:00:00 12.8 6 Nordeste 10 Nordeste 0 -- -- 53
2019-02-06 19:00:00 13.5 8 Norte 15 Norte 0 -- -- 54
2019-02-06 18:00:00 15.2 8 Norte 15 Nordeste 0 -- -- 49
2019-02-06 17:00:00 16.8 6 Norte 14 Norte 0 -- -- 43
2019-02-06 16:00:00 17.2 5 Norte 12 Oeste 0 -- -- 42
2019-02-06 15:00:00 17.4 6 Noroeste 14 Noroeste 0 -- -- 43
2019-02-06 14:00:00 17.5 6 Oeste 12 Sudoeste 0 -- -- 36
2019-02-06 13:00:00 17.3 4 Sudoeste 13 Sur 0 -- -- 41
2019-02-06 12:00:00 15.2 9 Sur 14 Sur 0 -- -- 50
2019-02-06 11:00:00 13.7 6 Sur 10 Sudeste 0 -- -- 56
2019-02-06 10:00:00 10.9 0 Calma 3 Sudeste 0 -- -- 55
2019-02-06 09:00:00 8.6 0 Calma 2 Sur 0 -- -- 58
2019-02-06 08:00:00 8.9 0 Calma 8 Sudeste 0 -- -- 57
2019-02-06 07:00:00 10 5 Sudeste 10 Sudeste 0 -- -- 53
2019-02-06 06:00:00 10.1 5 Sudeste 7 Sudeste 0 -- -- 52
2019-02-06 05:00:00 9.4 0 Calma 5 Sudeste 0 -- -- 53
2019-02-06 04:00:00 9.3 0 Calma 10 Sudeste 0 -- -- 54
2019-02-06 03:00:00 9.5 7 Sur 9 Sur 0 -- -- 58
2019-02-06 02:00:00 10.5 4 Sudeste 6 Este 0 -- -- 54
2019-02-06 01:00:00 10.4 0 Calma 5 Nordeste 0 -- -- 55
2019-02-06 00:00:00 10.3 2 Nordeste 4 Nordeste 0 -- -- 56
2019-02-05 23:00:00 10.2 0 Calma 10 Este 0 -- -- 59
2019-02-05 22:00:00 10.4 2 Sudoeste 6 Nordeste 0 -- -- 57
2019-02-05 21:00:00 11.7 0 Calma 6 Este 0 -- -- 51
2019-02-05 20:00:00 12.6 6 Este 10 Este 0 -- -- 50
2019-02-05 19:00:00 13.7 9 Este 12 Este 0 -- -- 47
2019-02-05 18:00:00 15 8 Nordeste 13 Nordeste 0 -- -- 44
2019-02-05 17:00:00 15.7 6 Nordeste 16 Este 0 -- -- 40
2019-02-05 16:00:00 15.6 9 Nordeste 17 Este 0 -- -- 41
2019-02-05 15:00:00 15.3 8 Nordeste 17 Este 0 -- -- 40
2019-02-05 14:00:00 16.1 3 Sudoeste 9 Sur 0 -- -- 44
2019-02-05 13:00:00 13.7 4 Oeste 12 Oeste 0 -- -- 51
2019-02-05 12:00:00 12.2 0 Calma 9 Sudoeste 0 -- -- 55
2019-02-05 11:00:00 11 3 Sur 9 Sur 0 -- -- 55
2019-02-05 10:00:00 8.4 3 Sudeste 6 Sudeste 0 -- -- 59
2019-02-05 09:00:00 5.6 0 Calma 2 Oeste 0 -- -- 56
2019-02-05 08:00:00 5.7 0 Calma 4 Sudeste 0 -- -- 57
2019-02-05 07:00:00 5.9 0 Calma 5 Norte 0 -- -- 56
2019-02-05 06:00:00 6 0 Calma 6 Sudeste 0 -- -- 58
2019-02-05 05:00:00 6.8 4 Sudeste 6 Sudeste 0 -- -- 54
2019-02-05 04:00:00 7.2 6 Sudeste 8 Sudeste 0 -- -- 51
2019-02-05 03:00:00 6.3 3 Nordeste 5 Este 0 -- -- 52
2019-02-05 02:00:00 6.1 2 Nordeste 6 Nordeste 0 -- -- 51
2019-02-05 01:00:00 6 0 Calma 3 Nordeste 0 -- -- 53
2019-02-05 00:00:00 7 0 Calma 7 Nordeste 0 -- -- 45
2019-02-04 23:00:00 8 5 Nordeste 6 Nordeste 0 -- -- 44
2019-02-04 22:00:00 7.9 0 Calma 8 Este 0 -- -- 44
2019-02-04 21:00:00 8.2 8 Nordeste 12 Nordeste 0 -- -- 47
2019-02-04 20:00:00 8.8 8 Nordeste 13 Nordeste 0 -- -- 44
2019-02-04 19:00:00 9.2 9 Nordeste 12 Nordeste 0 -- -- 43
2019-02-04 18:00:00 10.9 8 Nordeste 12 Norte 0 -- -- 39
2019-02-04 17:00:00 12 5 Norte 12 Norte 0 -- -- 36
2019-02-04 16:00:00 12.2 6 Norte 13 Noroeste 0 -- -- 39
2019-02-04 15:00:00 11 4 Norte 11 Norte 0 -- -- 41
2019-02-04 14:00:00 10.6 5 Norte 10 Nordeste 0 -- -- 41
2019-02-04 13:00:00 10.2 5 Oeste 13 Sur 0 -- -- 45
2019-02-04 12:00:00 9.8 10 Sur 16 Sur 0 -- -- 50
2019-02-04 11:00:00 6.9 4 Sur 9 Sur 0 -- -- 56
2019-02-04 10:00:00 5.3 3 Sudeste 8 Nordeste 0 -- -- 59
2019-02-04 09:00:00 4.3 7 Este 25 Sudeste 0 -- -- 50
2019-02-04 08:00:00 4.8 19 Sudeste 30 Sudeste 0 -- -- 46
2019-02-04 07:00:00 5.1 22 Sudeste 28 Sudeste 0 -- -- 45
2019-02-04 06:00:00 4.5 18 Sudeste 25 Sudeste 0 -- -- 58
2019-02-04 05:00:00 4.2 15 Sudeste 22 Sudeste 0 -- -- 59
2019-02-04 04:00:00 3.9 5 Sudeste 8 Sudeste 0 -- -- 58
2019-02-04 03:00:00 4.2 3 Sudeste 4 Sudeste 0 -- -- 57
2019-02-04 02:00:00 3.9 2 Sur 7 Sur 0 -- -- 60
2019-02-04 01:00:00 4.1 4 Sudeste 9 Sudeste 0 -- -- 59
2019-02-04 00:00:00 4.9 0 Calma 4 Nordeste 0 -- -- 56
2019-02-03 23:00:00 5.4 0 Calma 10 Norte 0 -- -- 56
2019-02-03 22:00:00 4.8 0 Calma 9 Norte 0 -- -- 57
2019-02-03 21:00:00 5.6 4 Nordeste 11 Norte 0 -- -- 52
2019-02-03 20:00:00 6.3 8 Norte 14 Noroeste 0 -- -- 52
2019-02-03 19:00:00 7.3 6 Norte 12 Norte 0 -- -- 50
2019-02-03 18:00:00 8.9 6 Norte 14 Noroeste 0 -- -- 41
2019-02-03 17:00:00 9.5 8 Norte 18 Norte 0 -- -- 40
2019-02-03 16:00:00 8.9 9 Nordeste 22 Nordeste 0 -- -- 42
2019-02-03 15:00:00 8.6 5 Nordeste 16 Nordeste 0 -- -- 44
2019-02-03 14:00:00 8 8 Norte 15 Nordeste 0 -- -- 47
2019-02-03 13:00:00 7 9 Norte 16 Norte 0 -- -- 59
2019-02-03 12:00:00 5.5 7 Nordeste 15 Nordeste 0 -- -- 71
2019-02-03 11:00:00 3.9 4 Norte 9 Norte 0 -- -- 73
2019-02-03 10:00:00 2.8 0 Calma 3 Norte 0 -- -- 77
2019-02-03 09:00:00 0.6 0 Calma 4 Sur 0 -- -- 85
2019-02-03 08:00:00 0.4 0 Calma 6 Sur 0 -- -- 86
2019-02-03 07:00:00 0.6 0 Calma 5 Oeste 0 -- -- 84
2019-02-03 06:00:00 1.2 0 Calma 5 Noroeste 0 -- -- 78
2019-02-03 05:00:00 1.7 4 Noroeste 8 Oeste 0 -- -- 77
2019-02-03 04:00:00 2.2 4 Noroeste 17 Norte 0 -- -- 74
2019-02-03 03:00:00 2.5 8 Norte 17 Norte 0 -- -- 73
2019-02-03 02:00:00 2.6 9 Noroeste 15 Noroeste 0 -- -- 70
2019-02-03 01:00:00 3.2 12 Noroeste 26 Norte 0 -- -- 64
2019-02-03 00:00:00 3.7 14 Norte 33 Noroeste 0 -- -- 63
2019-02-02 23:00:00 4.1 18 Noroeste 28 Noroeste 0 -- -- 61
2019-02-02 22:00:00 4 15 Norte 31 Noroeste 0 -- -- 63
2019-02-02 21:00:00 4.7 17 Norte 26 Noroeste 0 -- -- 60
2019-02-02 20:00:00 5.5 14 Norte 27 Norte 0 -- -- 58
2019-02-02 19:00:00 6.3 15 Norte 35 Noroeste 0 -- -- 57
2019-02-02 18:00:00 8.5 21 Noroeste 40 Noroeste 0 -- -- 50
2019-02-02 17:00:00 9 25 Noroeste 45 Noroeste 0 -- -- 51
2019-02-02 16:00:00 8.9 27 Noroeste 54 Noroeste 0 -- -- 55
2019-02-02 15:00:00 9.3 33 Noroeste 50 Norte 0 -- -- 53
2019-02-02 14:00:00 8.6 26 Noroeste 43 Noroeste 0 -- -- 60
2019-02-02 13:00:00 6.6 20 Noroeste 39 Noroeste 0 -- -- 64
2019-02-02 12:00:00 6.1 21 Noroeste 37 Noroeste 0 -- -- 70
2019-02-02 11:00:00 5.4 16 Noroeste 32 Oeste 0 -- -- 72
2019-02-02 10:00:00 4.3 20 Noroeste 32 Oeste 0 -- -- 77
2019-02-02 09:00:00 3.1 7 Oeste 28 Noroeste 0 -- -- 85
2019-02-02 08:00:00 3.5 17 Oeste 33 Oeste 0 -- -- 90
2019-02-02 07:00:00 4 13 Noroeste 32 Noroeste 0 -- -- 89
2019-02-02 06:00:00 4.5 15 Noroeste 30 Oeste 0 -- -- 91
2019-02-02 05:00:00 4.8 13 Oeste 26 Noroeste 0 -- -- 91
2019-02-02 04:00:00 5 16 Noroeste 34 Noroeste 0 -- -- 91
2019-02-02 03:00:00 5.2 18 Oeste 30 Oeste 0 -- -- 93
2019-02-02 02:00:00 4.8 21 Oeste 34 Oeste 0 -- -- 93
2019-02-02 01:00:00 4.7 19 Oeste 39 Oeste 0 -- -- 92
2019-02-02 00:00:00 4.5 19 Oeste 35 Oeste 0 -- -- 93
2019-02-01 23:00:00 4.5 16 Oeste 40 Oeste 0 -- -- 90
2019-02-01 22:00:00 5.1 18 Oeste 42 Oeste 0 -- -- 88
2019-02-01 21:00:00 5.1 21 Oeste 43 Noroeste 0 -- -- 83
2019-02-01 20:00:00 5.5 23 Oeste 44 Noroeste 0 -- -- 80
2019-02-01 19:00:00 6.3 26 Oeste 39 Oeste 0 -- -- 84
2019-02-01 18:00:00 6.8 24 Oeste 47 Noroeste 0.2 -- -- 88
2019-02-01 17:00:00 5.8 33 Noroeste 73 Oeste 0.8 -- -- 88
2019-02-01 16:00:00 10.4 44 Oeste 71 Oeste 0 -- -- 68
2019-02-01 15:00:00 9.6 34 Oeste 69 Oeste 0 -- -- 79
2019-02-01 14:00:00 10.5 40 Oeste 56 Oeste 0 -- -- 65
2019-02-01 13:00:00 9.5 34 Oeste 60 Oeste 0 -- -- 71
2019-02-01 12:00:00 8.8 32 Oeste 49 Oeste 0 -- -- 77
2019-02-01 11:00:00 8.3 26 Oeste 43 Oeste 0 -- -- 81
2019-02-01 10:00:00 7.5 20 Oeste 44 Oeste 0 -- -- 88
2019-02-01 09:00:00 7.6 26 Oeste 47 Oeste 0 -- -- 85
2019-02-01 08:00:00 7.9 23 Oeste 43 Noroeste 0 -- -- 90
2019-02-01 07:00:00 8.3 24 Oeste 44 Oeste 0 -- -- 91
2019-02-01 06:00:00 8.6 26 Oeste 44 Oeste 0 -- -- 96
2019-02-01 05:00:00 9 18 Noroeste 40 Oeste 1.6 -- -- 96
2019-02-01 04:00:00 10.5 25 Sudoeste 49 Sudoeste 3.6 -- -- 96
2019-02-01 03:00:00 11 32 Sudoeste 51 Sudoeste 1.8 -- -- 97
2019-02-01 02:00:00 10.9 33 Sudoeste 49 Sudoeste 1.2 -- -- 96
2019-02-01 01:00:00 10.7 35 Sudoeste 50 Sudoeste 1 -- -- 96
2019-02-01 00:00:00 10.8 38 Sudoeste 55 Sudoeste 0 -- -- 93
2019-01-31 23:00:00 11.3 36 Sudoeste 51 Sudoeste 0 -- -- 88
2019-01-31 22:00:00 11.2 26 Sudoeste 41 Sudoeste 0 -- -- 90
2019-01-31 21:00:00 11.2 26 Sudoeste 37 Sudoeste 0 -- -- 92
2019-01-31 20:00:00 11.1 27 Sudoeste 42 Sudoeste 0 -- -- 90
2019-01-31 19:00:00 10.9 28 Sudoeste 55 Sudoeste 0 -- -- 86
2019-01-31 18:00:00 11.9 39 Sudoeste 68 Sudoeste 0.2 -- -- 90
2019-01-31 17:00:00 12.6 28 Sudoeste 40 Sudoeste 0 -- -- 90
2019-01-31 16:00:00 12.6 26 Sudoeste 53 Oeste 0 -- -- 88
2019-01-31 15:00:00 13 29 Sudoeste 49 Oeste 0 -- -- 87
2019-01-31 14:00:00 11.9 29 Sudoeste 43 Sudoeste 0 -- -- 93
2019-01-31 13:00:00 11.4 30 Sudoeste 42 Sudoeste 0 -- -- 94
2019-01-31 12:00:00 11.3 21 Sudoeste 32 Oeste 0 -- -- 93
2019-01-31 11:00:00 10.4 19 Sudoeste 32 Sudoeste 0.2 -- -- 96
2019-01-31 10:00:00 9.9 13 Sudoeste 31 Oeste 0 -- -- 95
2019-01-31 09:00:00 10 15 Oeste 34 Oeste 0 -- -- 97
2019-01-31 08:00:00 10.1 14 Oeste 27 Oeste 1 -- -- 98
2019-01-31 07:00:00 10.3 13 Oeste 33 Oeste 0.6 -- -- 98
2019-01-31 06:00:00 10.3 19 Oeste 32 Oeste 0 -- -- 97
2019-01-31 05:00:00 10.4 20 Oeste 32 Sudoeste 0 -- -- 96
2019-01-31 04:00:00 10.4 19 Oeste 36 Oeste 0 -- -- 97
2019-01-31 03:00:00 10 17 Oeste 29 Oeste 0.2 -- -- 98
2019-01-31 02:00:00 9.6 15 Sudoeste 26 Sudoeste 0.4 -- -- 97
2019-01-31 01:00:00 9.4 17 Sudoeste 32 Sudoeste 0.2 -- -- 97
2019-01-31 00:00:00 9.4 20 Sudoeste 35 Sudoeste 0 -- -- 95
2019-01-30 23:00:00 9.4 18 Sudoeste 29 Sudoeste 0 -- -- 92
2019-01-30 22:00:00 9.5 15 Sudoeste 24 Sudoeste 0 -- -- 94
2019-01-30 21:00:00 9.3 17 Sudoeste 26 Sudoeste 0.4 -- -- 95
2019-01-30 20:00:00 9.1 17 Sudoeste 28 Sudoeste 0.2 -- -- 93
2019-01-30 19:00:00 9 16 Sudoeste 28 Sudoeste 0 -- -- 92
2019-01-30 18:00:00 9 10 Sudoeste 26 Oeste 0 -- -- 89
2019-01-30 17:00:00 9.8 13 Oeste 30 Oeste 0 -- -- 79
2019-01-30 16:00:00 10.6 16 Oeste 26 Oeste 0 -- -- 69
2019-01-30 15:00:00 10.5 14 Oeste 30 Oeste 0 -- -- 69
2019-01-30 14:00:00 10.4 15 Noroeste 32 Oeste 0 -- -- 70
2019-01-30 13:00:00 9.8 13 Noroeste 31 Noroeste 0 -- -- 72
2019-01-30 12:00:00 8.8 17 Noroeste 29 Noroeste 0 -- -- 78
2019-01-30 11:00:00 7 14 Noroeste 23 Noroeste 0 -- -- 91
2019-01-30 10:00:00 5.8 8 Noroeste 15 Noroeste 0 -- -- 94
2019-01-30 09:00:00 5.3 11 Noroeste 17 Noroeste 0 -- -- 94
2019-01-30 08:00:00 6 8 Noroeste 18 Noroeste 0 -- -- 91
2019-01-30 07:00:00 5.9 9 Oeste 22 Oeste 0 -- -- 89
2019-01-30 06:00:00 5.7 4 Oeste 16 Oeste 0 -- -- 88
2019-01-30 05:00:00 6.1 8 Noroeste 21 Noroeste 0 -- -- 88
2019-01-30 04:00:00 6.9 10 Noroeste 26 Noroeste 0 -- -- 87
2019-01-30 03:00:00 7.5 20 Oeste 37 Oeste 0 -- -- 86
2019-01-30 02:00:00 8.6 19 Oeste 33 Noroeste 0 -- -- 82
2019-01-30 01:00:00 9.2 15 Noroeste 28 Oeste 0 -- -- 88
2019-01-30 00:00:00 9.2 20 Oeste 30 Oeste 0 -- -- 92
2019-01-29 23:00:00 9.1 15 Oeste 28 Oeste 0 -- -- 91
2019-01-29 22:00:00 9.2 16 Oeste 30 Oeste 0 -- -- 89
2019-01-29 21:00:00 9.2 17 Oeste 33 Oeste 0 -- -- 88
2019-01-29 20:00:00 9.5 18 Oeste 29 Oeste 0 -- -- 87
2019-01-29 19:00:00 9.9 15 Oeste 31 Oeste 0 -- -- 81
2019-01-29 18:00:00 10.5 18 Oeste 36 Oeste 0 -- -- 80
2019-01-29 17:00:00 10.8 22 Oeste 38 Noroeste 0 -- -- 80
2019-01-29 16:00:00 10.8 23 Oeste 33 Oeste 0 -- -- 80
2019-01-29 15:00:00 10 19 Oeste 31 Noroeste 0 -- -- 86
2019-01-29 14:00:00 9 18 Oeste 40 Oeste 0 -- -- 94
2019-01-29 13:00:00 9 19 Oeste 30 Oeste 0 -- -- 93
2019-01-29 12:00:00 8 17 Oeste 29 Oeste 0 -- -- 93
2019-01-29 11:00:00 7.3 14 Oeste 23 Oeste 0 -- -- 95
2019-01-29 10:00:00 5.5 5 Sudoeste 13 Oeste 0 -- -- 98
2019-01-29 09:00:00 4.8 3 Sudoeste 13 Oeste 0 -- -- 98
2019-01-29 08:00:00 4.7 7 Oeste 15 Oeste 0 -- -- 97
2019-01-29 07:00:00 4.9 5 Sudoeste 13 Oeste 0 -- -- 97
2019-01-29 06:00:00 5 6 Sudoeste 12 Sudoeste 0 -- -- 97
2019-01-29 05:00:00 5.6 3 Sudoeste 9 Sudoeste 0 -- -- 96
2019-01-29 04:00:00 6.2 3 Sudoeste 14 Sudoeste 0 -- -- 96
2019-01-29 03:00:00 6.7 4 Sur 12 Sudoeste 0 -- -- 96
2019-01-29 02:00:00 7.2 5 Sur 10 Oeste 0 -- -- 96
2019-01-29 01:00:00 7.1 5 Sudoeste 15 Sudeste 0 -- -- 95
2019-01-29 00:00:00 7.5 3 Sudoeste 9 Oeste 0 -- -- 91
2019-01-28 23:00:00 7.7 4 Noroeste 10 Sudoeste 0 -- -- 91
2019-01-28 22:00:00 8.2 8 Noroeste 30 Noroeste 0 -- -- 88
2019-01-28 21:00:00 8.9 5 Oeste 39 Noroeste 0 -- -- 82
2019-01-28 20:00:00 9.6 21 Noroeste 41 Noroeste 0 -- -- 75
2019-01-28 19:00:00 10.7 15 Noroeste 43 Noroeste 0 -- -- 69
2019-01-28 18:00:00 11.4 27 Noroeste 49 Noroeste 0 -- -- 66
2019-01-28 17:00:00 11.6 28 Oeste 48 Noroeste 0 -- -- 66
2019-01-28 16:00:00 12.3 29 Noroeste 45 Noroeste 0 -- -- 62
2019-01-28 15:00:00 12.8 26 Noroeste 46 Oeste 0 -- -- 58
2019-01-28 14:00:00 11.6 24 Noroeste 41 Noroeste 0 -- -- 60
2019-01-28 13:00:00 10.8 26 Noroeste 42 Noroeste 0 -- -- 60
2019-01-28 12:00:00 9.6 19 Oeste 35 Oeste 0 -- -- 65
2019-01-28 11:00:00 7 12 Oeste 18 Oeste 0 -- -- 75
2019-01-28 10:00:00 4.7 8 Sur 13 Sur 0 -- -- 80
2019-01-28 09:00:00 2.9 3 Sudoeste 8 Oeste 0 -- -- 84
2019-01-28 08:00:00 2.8 3 Sudeste 9 Norte 0 -- -- 85
2019-01-28 07:00:00 3 2 Noroeste 10 Noroeste 0 -- -- 84
2019-01-28 06:00:00 2.9 7 Norte 13 Noroeste 0 -- -- 83
2019-01-28 05:00:00 3.7 3 Norte 10 Noroeste 0 -- -- 79
2019-01-28 04:00:00 4.1 0 Calma 8 Sur 0 -- -- 77
2019-01-28 03:00:00 3.8 3 Sur 9 Noroeste 0 -- -- 79
2019-01-28 02:00:00 4.2 5 Noroeste 13 Oeste 0 -- -- 76
2019-01-28 01:00:00 5.1 3 Oeste 13 Noroeste 0 -- -- 68
2019-01-28 00:00:00 5.5 2 Oeste 15 Noroeste 0 -- -- 65
2019-01-27 23:00:00 6.7 4 Noroeste 23 Noroeste 0 -- -- 60
2019-01-27 22:00:00 7.5 5 Norte 19 Noroeste 0 -- -- 56
2019-01-27 21:00:00 7.9 9 Norte 18 Norte 0 -- -- 53
2019-01-27 20:00:00 8.4 12 Norte 26 Noroeste 0 -- -- 52
2019-01-27 19:00:00 9.1 15 Noroeste 29 Norte 0 -- -- 51
2019-01-27 18:00:00 11.2 24 Norte 45 Noroeste 0 -- -- 43
2019-01-27 17:00:00 12.4 26 Norte 42 Noroeste 0 -- -- 38
2019-01-27 16:00:00 12.2 25 Noroeste 40 Noroeste 0 -- -- 44
2019-01-27 15:00:00 11.9 22 Noroeste 42 Noroeste 0 -- -- 55
2019-01-27 14:00:00 10.6 27 Noroeste 45 Noroeste 0 -- -- 67
2019-01-27 13:00:00 9.7 19 Noroeste 35 Oeste 0 -- -- 71
2019-01-27 12:00:00 9.7 19 Noroeste 30 Noroeste 0 -- -- 74
2019-01-27 11:00:00 6.9 9 Oeste 14 Oeste 0 -- -- 88
2019-01-27 10:00:00 4.6 4 Sur 14 Sur 0 -- -- 97
2019-01-27 09:00:00 4.4 7 Sur 13 Sur 0 -- -- 97
2019-01-27 08:00:00 4.5 6 Sudoeste 13 Sudoeste 0 -- -- 96
2019-01-27 07:00:00 4.6 6 Sudoeste 14 Oeste 0 -- -- 90
2019-01-27 06:00:00 6.3 5 Sudoeste 13 Sudoeste 0 -- -- 85
2019-01-27 05:00:00 7.3 5 Sur 15 Sur 0 -- -- 84
2019-01-27 04:00:00 7.5 9 Sur 14 Sur 0 -- -- 85
2019-01-27 03:00:00 7.9 5 Sudoeste 10 Sur 0 -- -- 79
2019-01-27 02:00:00 9.3 6 Sur 12 Sur 0 -- -- 72
2019-01-27 01:00:00 9.8 5 Sur 12 Sur 0 -- -- 69
2019-01-27 00:00:00 9.7 6 Sudeste 11 Sur 0 -- -- 67
2019-01-26 23:00:00 10.2 3 Sur 7 Sudeste 0 -- -- 60
2019-01-26 22:00:00 10 3 Sur 5 Sur 0 -- -- 56
2019-01-26 21:00:00 11.1 0 Calma 4 Sudeste 0 -- -- 50
2019-01-26 20:00:00 13.4 0 Calma 12 Nordeste 0 -- -- 41
2019-01-26 19:00:00 14.2 8 Nordeste 11 Nordeste 0 -- -- 43
2019-01-26 18:00:00 16.1 6 Nordeste 9 Noroeste 0 -- -- 36
2019-01-26 17:00:00 17.6 5 Noroeste 11 Noroeste 0 -- -- 31
2019-01-26 16:00:00 17.3 5 Norte 11 Norte 0 -- -- 33
2019-01-26 15:00:00 18.6 3 Sur 13 Sur 0 -- -- 26
2019-01-26 14:00:00 17.7 7 Sur 14 Sur 0 -- -- 37
2019-01-26 13:00:00 16.6 9 Sur 15 Sur 0 -- -- 40
2019-01-26 12:00:00 14.3 8 Sudoeste 11 Sur 0 -- -- 51
2019-01-26 11:00:00 11.1 0 Calma 6 Nordeste 0 -- -- 52
2019-01-26 10:00:00 9.6 2 Nordeste 10 Sudeste 0 -- -- 57
2019-01-26 09:00:00 6.8 4 Sudeste 9 Sur 0 -- -- 69
2019-01-26 08:00:00 6.7 0 Calma 9 Este 0 -- -- 71
2019-01-26 07:00:00 8.6 3 Nordeste 19 Este 0 -- -- 59
2019-01-26 06:00:00 8.9 5 Este 13 Sudeste 0 -- -- 57
2019-01-26 05:00:00 9.3 2 Norte 9 Sudeste 0 -- -- 65
2019-01-26 04:00:00 11.4 6 Este 12 Este 0 -- -- 56
2019-01-26 03:00:00 11.4 6 Este 11 Sudeste 0 -- -- 65
2019-01-26 02:00:00 12 4 Este 9 Sudeste 0 -- -- 62
2019-01-26 01:00:00 11.5 0 Calma 8 Sudeste 0 -- -- 64
2019-01-26 00:00:00 12.3 5 Sudeste 12 Nordeste 0 -- -- 61
2019-01-25 23:00:00 13.1 7 Nordeste 12 Nordeste 0 -- -- 58
2019-01-25 22:00:00 12.7 6 Nordeste 9 Nordeste 0 -- -- 60
2019-01-25 21:00:00 12.8 0 Calma 9 Norte 0 -- -- 59
2019-01-25 20:00:00 13.6 6 Nordeste 12 Norte 0 -- -- 57
2019-01-25 19:00:00 13.9 9 Nordeste 11 Nordeste 0 -- -- 60
2019-01-25 18:00:00 15.8 6 Nordeste 9 Norte 0 -- -- 54
2019-01-25 17:00:00 16.4 6 Norte 12 Norte 0 -- -- 50
2019-01-25 16:00:00 16.1 6 Norte 13 Nordeste 0 -- -- 47
2019-01-25 15:00:00 16.2 7 Norte 14 Oeste 0 -- -- 50
2019-01-25 14:00:00 16.3 8 Oeste 14 Nordeste 0 -- -- 59
2019-01-25 13:00:00 13.1 9 Nordeste 14 Norte 0 -- -- 71
2019-01-25 12:00:00 11.9 8 Norte 13 Norte 0 -- -- 74
2019-01-25 11:00:00 11.9 3 Oeste 15 Sudeste 0 -- -- 78
2019-01-25 10:00:00 9.6 3 Sudeste 9 Sudeste 0 -- -- 81
2019-01-25 09:00:00 8.9 2 Este 8 Sudeste 0 -- -- 78
2019-01-25 08:00:00 8.5 5 Sudeste 7 Sudeste 0 -- -- 82
2019-01-25 07:00:00 8.9 3 Norte 7 Nordeste 0 -- -- 80
2019-01-25 06:00:00 8.9 2 Nordeste 5 Nordeste 0 -- -- 82
2019-01-25 05:00:00 8.6 2 Sur 5 Sudeste 0 -- -- 84
2019-01-25 04:00:00 9.2 2 Norte 19 Nordeste 0 -- -- 81
2019-01-25 03:00:00 10.7 12 Nordeste 17 Nordeste 0 -- -- 76
2019-01-25 02:00:00 10.5 6 Norte 9 Norte 0 -- -- 77
2019-01-25 01:00:00 10.9 3 Norte 8 Norte 0 -- -- 76
2019-01-25 00:00:00 11 3 Norte 7 Nordeste 0 -- -- 76
2019-01-24 23:00:00 11.5 5 Norte 15 Norte 0 -- -- 74
2019-01-24 22:00:00 12.1 8 Norte 14 Norte 0 -- -- 73
2019-01-24 21:00:00 12.5 0 Calma 5 Oeste 0 -- -- 72
2019-01-24 20:00:00 13 3 Noroeste 11 Oeste 0 -- -- 70
2019-01-24 19:00:00 14.1 2 Oeste 11 Noroeste 0 -- -- 68
2019-01-24 18:00:00 16.2 9 Noroeste 24 Noroeste 0 -- -- 62
2019-01-24 17:00:00 16.1 13 Norte 29 Norte 0 -- -- 61
2019-01-24 16:00:00 16.8 15 Noroeste 27 Noroeste 0 -- -- 59
2019-01-24 15:00:00 15.7 15 Noroeste 28 Noroeste 0 -- -- 64
2019-01-24 14:00:00 14.4 13 Noroeste 28 Oeste 0 -- -- 70
2019-01-24 13:00:00 13.3 13 Noroeste 26 Noroeste 0 -- -- 73
2019-01-24 12:00:00 11.8 14 Noroeste 23 Noroeste 0 -- -- 78
2019-01-24 11:00:00 9.8 11 Noroeste 18 Noroeste 0 -- -- 88
2019-01-24 10:00:00 7.8 3 Noroeste 15 Oeste 0 -- -- 94
2019-01-24 09:00:00 6.9 3 Noroeste 10 Noroeste 0 -- -- 95
2019-01-24 08:00:00 7.2 5 Noroeste 12 Noroeste 0 -- -- 95
2019-01-24 07:00:00 7.2 6 Noroeste 15 Sudoeste 0 -- -- 95
2019-01-24 06:00:00 7.5 9 Sudoeste 21 Oeste 0 -- -- 94
2019-01-24 05:00:00 7.6 8 Noroeste 17 Noroeste 0 -- -- 93
2019-01-24 04:00:00 7.7 7 Oeste 17 Oeste 0 -- -- 94
2019-01-24 03:00:00 7.7 6 Sur 18 Oeste 0 -- -- 92
2019-01-24 02:00:00 8.6 14 Noroeste 28 Noroeste 0 -- -- 91
2019-01-24 01:00:00 8.9 9 Noroeste 30 Noroeste 0 -- -- 91
2019-01-24 00:00:00 9.2 12 Noroeste 43 Noroeste 0 -- -- 89
2019-01-23 23:00:00 9.5 15 Noroeste 28 Oeste 0 -- -- 87
2019-01-23 22:00:00 9.8 8 Sudoeste 27 Oeste 0 -- -- 84
2019-01-23 21:00:00 10.6 13 Oeste 32 Noroeste 0 -- -- 77
2019-01-23 20:00:00 10.9 18 Noroeste 32 Noroeste 0 -- -- 74
2019-01-23 19:00:00 11.4 18 Noroeste 43 Noroeste 0 -- -- 72
2019-01-23 18:00:00 12.7 31 Noroeste 49 Noroeste 0 -- -- 65
2019-01-23 17:00:00 12.7 22 Noroeste 37 Oeste 0 -- -- 67
2019-01-23 16:00:00 12.2 19 Oeste 49 Noroeste 0 -- -- 74
2019-01-23 15:00:00 12.6 27 Noroeste 42 Oeste 0 -- -- 70
2019-01-23 14:00:00 12 25 Noroeste 51 Noroeste 0 -- -- 73
2019-01-23 13:00:00 12.1 26 Noroeste 41 Noroeste 0 -- -- 69
2019-01-23 12:00:00 10.7 22 Noroeste 35 Oeste 0 -- -- 74
2019-01-23 11:00:00 8.9 19 Noroeste 34 Noroeste 0 -- -- 84
2019-01-23 10:00:00 7.7 18 Noroeste 32 Oeste 0 -- -- 94
2019-01-23 09:00:00 6.8 15 Noroeste 30 Noroeste 0 -- -- 96
2019-01-23 08:00:00 6.3 14 Noroeste 27 Noroeste 0 -- -- 95
2019-01-23 07:00:00 6 17 Noroeste 28 Noroeste 0 -- -- 94
2019-01-23 06:00:00 6 13 Noroeste 23 Noroeste 0 -- -- 95
2019-01-23 05:00:00 5.2 9 Noroeste 23 Oeste 0 -- -- 97
2019-01-23 04:00:00 5.1 12 Noroeste 28 Noroeste 0 -- -- 92
2019-01-23 03:00:00 5.8 10 Noroeste 28 Noroeste 0 -- -- 87
2019-01-23 02:00:00 5.9 13 Noroeste 35 Noroeste 0 -- -- 89
2019-01-23 01:00:00 6.4 19 Noroeste 33 Oeste 0 -- -- 91
2019-01-23 00:00:00 7.2 12 Noroeste 35 Noroeste 0 -- -- 91
2019-01-22 23:00:00 7.9 18 Noroeste 36 Noroeste 0 -- -- 90
2019-01-22 22:00:00 8.2 19 Noroeste 37 Noroeste 0 -- -- 90
2019-01-22 21:00:00 8.3 17 Noroeste 29 Oeste 0 -- -- 88
2019-01-22 20:00:00 8.1 17 Oeste 32 Oeste 0 -- -- 86
2019-01-22 19:00:00 8.5 17 Noroeste 31 Oeste 0 -- -- 79
2019-01-22 18:00:00 8.9 15 Oeste 28 Noroeste 0 -- -- 75
2019-01-22 17:00:00 9.2 16 Noroeste 44 Noroeste 0 -- -- 69
2019-01-22 16:00:00 9.7 26 Noroeste 42 Noroeste 0 -- -- 66
2019-01-22 15:00:00 9.1 17 Noroeste 45 Noroeste 0 -- -- 70
2019-01-22 14:00:00 8.1 22 Noroeste 38 Noroeste 0 -- -- 72
2019-01-22 13:00:00 7.7 15 Oeste 25 Oeste 0 -- -- 76
2019-01-22 12:00:00 5.8 12 Oeste 17 Oeste 0 -- -- 85
2019-01-22 11:00:00 5.6 8 Oeste 13 Oeste 0 -- -- 85
2019-01-22 10:00:00 3.7 2 Oeste 9 Sudoeste 0 -- -- 82
2019-01-22 09:00:00 3 4 Sur 8 Sur 0 -- -- 83
2019-01-22 08:00:00 3.1 4 Sudeste 7 Sudeste 0 -- -- 82
2019-01-22 07:00:00 3.1 0 Calma 4 Sur 0 -- -- 82
2019-01-22 06:00:00 2.9 5 Sudeste 9 Sudeste 0 -- -- 83
2019-01-22 05:00:00 3.3 2 Sur 7 Sur 0 -- -- 81
2019-01-22 04:00:00 3.8 3 Sudoeste 7 Sudoeste 0 -- -- 76
2019-01-22 03:00:00 4.1 3 Sur 9 Sudoeste 0 -- -- 76
2019-01-22 02:00:00 4.5 2 Sur 6 Sudoeste 0 -- -- 76
2019-01-22 01:00:00 4.8 4 Sur 8 Sudeste 0 -- -- 77
2019-01-22 00:00:00 5.3 4 Sur 8 Sur 0 -- -- 76
2019-01-21 23:00:00 6 3 Sur 6 Sudoeste 0 -- -- 73
2019-01-21 22:00:00 6.6 0 Calma 4 Sudoeste 0 -- -- 69
2019-01-21 21:00:00 6.9 0 Calma 6 Sur 0 -- -- 69
2019-01-21 20:00:00 7.6 3 Norte 6 Norte 0 -- -- 66
2019-01-21 19:00:00 8.4 4 Norte 11 Noroeste 0 -- -- 63
2019-01-21 18:00:00 10.6 8 Noroeste 12 Noroeste 0 -- -- 58
2019-01-21 17:00:00 10.7 6 Norte 14 Norte 0 -- -- 55
2019-01-21 16:00:00 10.5 8 Norte 19 Nordeste 0 -- -- 62
2019-01-21 15:00:00 9.9 7 Nordeste 17 Norte 0 -- -- 60
2019-01-21 14:00:00 9.8 7 Norte 15 Norte 0 -- -- 65
2019-01-21 13:00:00 8.9 5 Norte 11 Norte 0 -- -- 71
2019-01-21 12:00:00 7.6 3 Oeste 8 Oeste 0 -- -- 78
2019-01-21 11:00:00 6 2 Oeste 5 Sudoeste 0 -- -- 84
2019-01-21 10:00:00 4.3 0 Calma 4 Oeste 0 -- -- 89
2019-01-21 09:00:00 2.9 0 Calma 5 Noroeste 0 -- -- 92
2019-01-21 08:00:00 3.1 0 Calma 3 Sudeste 0 -- -- 91
2019-01-21 07:00:00 3 3 Sudeste 4 Sudeste 0 -- -- 90
2019-01-21 06:00:00 3.7 0 Calma 4 Sur 0 -- -- 87
2019-01-21 05:00:00 4.2 0 Calma 3 Oeste 0 -- -- 85
2019-01-21 04:00:00 4.5 0 Calma 4 Oeste 0 -- -- 84
2019-01-21 03:00:00 4.9 0 Calma 4 Sur 0 -- -- 82
2019-01-21 02:00:00 5.4 0 Calma 4 Norte 0 -- -- 80
2019-01-21 01:00:00 5.7 3 Norte 9 Noroeste 0 -- -- 79
2019-01-21 00:00:00 5.8 4 Noroeste 10 Noroeste 0 -- -- 79
2019-01-20 23:00:00 6.6 7 Norte 13 Norte 0 -- -- 76
2019-01-20 22:00:00 7.3 7 Norte 12 Norte 0 -- -- 74
2019-01-20 21:00:00 7.9 7 Norte 15 Norte 0 -- -- 72
2019-01-20 20:00:00 8.2 8 Norte 18 Norte 0 -- -- 71
2019-01-20 19:00:00 9.7 11 Norte 29 Noroeste 0 -- -- 68
2019-01-20 18:00:00 11.8 14 Noroeste 33 Norte 0 -- -- 61
2019-01-20 17:00:00 11.5 16 Noroeste 26 Noroeste 0 -- -- 64
2019-01-20 16:00:00 12.1 15 Norte 32 Noroeste 0 -- -- 62
2019-01-20 15:00:00 12.5 12 Noroeste 26 Noroeste 0 -- -- 64
2019-01-20 14:00:00 12.4 14 Noroeste 28 Noroeste 0 -- -- 66
2019-01-20 13:00:00 11.2 15 Noroeste 26 Noroeste 0 -- -- 74
2019-01-20 12:00:00 9.8 14 Noroeste 28 Noroeste 0 -- -- 80
2019-01-20 11:00:00 8.1 13 Noroeste 27 Noroeste 0 -- -- 89
2019-01-20 10:00:00 7.3 12 Noroeste 28 Noroeste 0 -- -- 92
2019-01-20 09:00:00 7.8 17 Noroeste 30 Noroeste 0 -- -- 94
2019-01-20 08:00:00 8.7 18 Noroeste 34 Noroeste 0 -- -- 96
2019-01-20 07:00:00 9.3 18 Noroeste 30 Noroeste 0.2 -- -- 98
2019-01-20 06:00:00 9.4 14 Noroeste 29 Noroeste 0 -- -- 97
2019-01-20 05:00:00 9.5 17 Noroeste 29 Oeste 0 -- -- 98
2019-01-20 04:00:00 9.5 15 Oeste 25 Oeste 0.4 -- -- 97
2019-01-20 03:00:00 9.5 14 Oeste 23 Oeste 0 -- -- 97
2019-01-20 02:00:00 9.5 13 Oeste 24 Oeste 0.2 -- -- 98
2019-01-20 01:00:00 9.4 9 Sudoeste 15 Sudoeste 0 -- -- 96
2019-01-20 00:00:00 8.9 13 Sudoeste 23 Sudeste 0 -- -- 94
2019-01-19 23:00:00 8.3 15 Sudeste 31 Sudeste 0 -- -- 94
2019-01-19 22:00:00 8.6 19 Sur 26 Sur 1.2 -- -- 96
2019-01-19 21:00:00 8.5 16 Sur 27 Sur 1.4 -- -- 96
2019-01-19 20:00:00 8.7 18 Sur 29 Sur 0.4 -- -- 97
2019-01-19 19:00:00 8.7 17 Sur 22 Sur 0.4 -- -- 96
2019-01-19 18:00:00 8.9 15 Sur 26 Sudoeste 0.6 -- -- 95
2019-01-19 17:00:00 8.6 14 Sur 26 Sudoeste 0.8 -- -- 95
2019-01-19 16:00:00 9.4 17 Sudoeste 23 Sur 0 -- -- 85
2019-01-19 15:00:00 9.5 13 Sur 22 Sudeste 0 -- -- 84
2019-01-19 14:00:00 8.5 14 Sudeste 22 Sudeste 0.2 -- -- 87
2019-01-19 13:00:00 7.8 5 Oeste 10 Sur 0 -- -- 83
2019-01-19 12:00:00 7.5 5 Sudoeste 9 Oeste 0 -- -- 81
2019-01-19 11:00:00 7.2 3 Oeste 6 Sur 0 -- -- 80
2019-01-19 10:00:00 6.7 3 Sur 6 Sudeste 0 -- -- 83
2019-01-19 09:00:00 6 0 Calma 4 Sudeste 0 -- -- 83
2019-01-19 08:00:00 5.7 3 Sudeste 5 Sudeste 0 -- -- 82
2019-01-19 07:00:00 5.4 2 Sur 4 Sudeste 0 -- -- 83
2019-01-19 06:00:00 4.7 3 Sur 4 Sur 0 -- -- 83
2019-01-19 05:00:00 4.5 0 Calma 3 Este 0 -- -- 84
2019-01-19 04:00:00 4.4 0 Calma 2 Sudeste 0 -- -- 84
2019-01-19 03:00:00 4.4 0 Calma 4 Nordeste 0 -- -- 83
2019-01-19 02:00:00 4.7 0 Calma 5 Sudeste 0 -- -- 82
2019-01-19 01:00:00 4.7 4 Sur 6 Sudeste 0 -- -- 83
2019-01-19 00:00:00 5.6 3 Sudoeste 10 Oeste 0 -- -- 80